Time;durP1;ratioP1;P1;durP2;ratioP2;P2;SDS_P1;SDS_P2;PMS_P1;PMS_P2;Temp;Humidity;BMP_temperature;BMP_pressure;BME280_temperature;BME280_humidity;BME280_pressure;Samples;Min_cycle;Max_cycle;Signal;HPM_P1;HPM_P2
2021/12/13 00:01:29;;;;;;;;;;;10.30;99.90;;;;;;5001952;28;19923;-72
2021/12/13 00:03:55;;;;;;;;;;;10.40;99.90;;;;;;5007089;28;20348;-73
2021/12/13 00:06:26;;;;;;;;;;;10.40;99.90;;;;;;5012370;28;20445;-73
2021/12/13 00:08:52;;;;;;;;;;;10.30;99.90;;;;;;5015065;28;20019;-72
2021/12/13 00:11:19;;;;;;;;;;;10.30;99.90;;;;;;5019038;28;19952;-73
2021/12/13 00:13:47;;;;;;;;;;;10.30;99.90;;;;;;5007925;28;20373;-73
2021/12/13 00:16:13;;;;;;;;;;;10.30;99.90;;;;;;5006572;28;20630;-71
2021/12/13 00:18:44;;;;;;;;;;;10.30;99.90;;;;;;5008365;28;19910;-73
2021/12/13 00:21:13;;;;;;;;;;;10.30;99.90;;;;;;5012008;28;19944;-73
2021/12/13 00:23:59;;;;;;;;;;;10.30;99.90;;;;;;5005073;28;20019;-72
2021/12/13 00:26:35;;;;;;;;;;;10.30;99.90;;;;;;5012493;28;19961;-73
2021/12/13 00:29:14;;;;;;;;;;;10.30;99.90;;;;;;5011267;28;19914;-71
2021/12/13 00:31:43;;;;;;;;;;;10.30;99.90;;;;;;5014019;28;19921;-73
2021/12/13 00:34:14;;;;;;;;;;;10.40;99.90;;;;;;5013497;28;20584;-73
2021/12/13 00:36:45;;;;;;;;;;;10.40;99.90;;;;;;5012092;28;19945;-73
2021/12/13 00:39:16;;;;;;;;;;;10.40;99.90;;;;;;5009900;28;20374;-73
2021/12/13 00:41:43;;;;;;;;;;;10.40;99.90;;;;;;5026517;28;19917;-72
2021/12/13 00:44:17;;;;;;;;;;;10.40;99.90;;;;;;5011945;28;19983;-73
2021/12/13 00:46:44;;;;;;;;;;;10.40;99.90;;;;;;5012622;28;19920;-72
2021/12/13 00:49:11;;;;;;;;;;;10.40;99.90;;;;;;5011300;28;20373;-73
2021/12/13 00:51:43;;;;;;;;;;;10.50;99.90;;;;;;5011734;28;20325;-74
2021/12/13 00:54:10;;;;;;;;;;;10.50;99.90;;;;;;5010676;28;19918;-73
2021/12/13 00:56:45;;;;;;;;;;;10.60;99.90;;;;;;5026039;28;19913;-73
2021/12/13 00:59:12;;;;;;;;;;;10.50;99.90;;;;;;5010349;28;20563;-73
2021/12/13 01:01:38;;;;;;;;;;;10.50;99.90;;;;;;5011242;28;20317;-73
2021/12/13 01:04:06;;;;;;;;;;;10.50;99.90;;;;;;5017614;28;19920;-72
2021/12/13 01:06:50;;;;;;;;;;;10.50;99.90;;;;;;5015172;28;19988;-73
2021/12/13 01:09:35;;;;;;;;;;;10.40;99.90;;;;;;5010036;28;19921;-72
2021/12/13 01:12:04;;;;;;;;;;;10.50;99.90;;;;;;5010479;28;20497;-72
2021/12/13 01:14:41;;;;;;;;;;;10.50;99.90;;;;;;5010272;28;19913;-73
2021/12/13 01:17:22;;;;;;;;;;;10.50;99.90;;;;;;5003971;28;19909;-72
2021/12/13 01:19:56;;;;;;;;;;;10.50;99.90;;;;;;5010295;28;19960;-73
2021/12/13 01:22:37;;;;;;;;;;;10.50;99.90;;;;;;5010878;28;20445;-73
2021/12/13 01:25:22;;;;;;;;;;;10.50;99.90;;;;;;5010988;28;19964;-71
2021/12/13 01:27:59;;;;;;;;;;;10.40;99.90;;;;;;5010986;28;19999;-73
2021/12/13 01:30:34;;;;;;;;;;;10.50;99.90;;;;;;5009765;28;19917;-77
2021/12/13 01:33:01;;;;;;;;;;;10.40;99.90;;;;;;5010322;28;20558;-72
2021/12/13 01:35:28;;;;;;;;;;;10.40;99.90;;;;;;5009879;28;20008;-71
2021/12/13 01:37:54;;;;;;;;;;;10.40;99.90;;;;;;5011210;28;20005;-73
2021/12/13 01:40:25;;;;;;;;;;;10.50;99.90;;;;;;5010175;28;19925;-72
2021/12/13 01:42:56;;;;;;;;;;;10.50;99.90;;;;;;5010100;28;19914;-73
2021/12/13 01:45:22;;;;;;;;;;;10.50;99.90;;;;;;5010121;28;19914;-73
2021/12/13 01:47:47;;;;;;;;;;;10.50;99.90;;;;;;5009992;28;19914;-73
2021/12/13 01:50:17;;;;;;;;;;;10.50;99.90;;;;;;5009145;28;20523;-73
2021/12/13 01:52:43;;;;;;;;;;;10.40;99.90;;;;;;5011198;28;20368;-72
2021/12/13 01:55:12;;;;;;;;;;;10.50;99.90;;;;;;5010166;28;20483;-73
2021/12/13 01:57:50;;;;;;;;;;;10.40;99.90;;;;;;5010268;28;19972;-72
2021/12/13 02:00:33;;;;;;;;;;;10.40;99.90;;;;;;5008905;28;19910;-73
2021/12/13 02:02:58;;;;;;;;;;;10.50;99.90;;;;;;5021289;28;19974;-72
2021/12/13 02:05:26;;;;;;;;;;;10.50;99.90;;;;;;5027398;28;19917;-73
2021/12/13 02:07:54;;;;;;;;;;;10.50;99.90;;;;;;5015216;28;20088;-71
2021/12/13 02:10:20;;;;;;;;;;;10.50;99.90;;;;;;5015064;28;19917;-72
2021/12/13 02:12:46;;;;;;;;;;;10.40;99.90;;;;;;5014215;28;20377;-72
2021/12/13 02:18:00;;;;;;;;;;;10.50;99.90;;;;;;5010689;28;19926;-72
2021/12/13 02:20:35;;;;;;;;;;;10.50;99.90;;;;;;5009840;28;19916;-72
2021/12/13 02:23:00;;;;;;;;;;;10.50;99.90;;;;;;5009697;28;19909;-72
2021/12/13 02:25:36;;;;;;;;;;;10.50;99.90;;;;;;5009770;28;19963;-72
2021/12/13 02:28:09;;;;;;;;;;;10.50;99.90;;;;;;5010123;28;19916;-73
2021/12/13 02:30:41;;;;;;;;;;;10.50;99.90;;;;;;5009282;28;20460;-73
2021/12/13 02:33:08;;;;;;;;;;;10.50;99.90;;;;;;5008999;28;19917;-72
2021/12/13 02:35:36;;;;;;;;;;;10.50;99.90;;;;;;5009149;28;19914;-72
2021/12/13 02:38:04;;;;;;;;;;;10.50;99.90;;;;;;5015930;28;19921;-73
2021/12/13 02:40:29;;;;;;;;;;;10.50;99.90;;;;;;5009373;28;19913;-72
2021/12/13 02:42:55;;;;;;;;;;;10.40;99.90;;;;;;5005513;28;19913;-73
2021/12/13 02:45:26;;;;;;;;;;;10.50;99.90;;;;;;5008800;28;19996;-71
2021/12/13 02:48:03;;;;;;;;;;;10.50;99.90;;;;;;4988070;28;20040;-72
2021/12/13 02:50:42;;;;;;;;;;;10.40;99.90;;;;;;5019283;28;19983;-72
2021/12/13 02:53:07;;;;;;;;;;;10.40;99.90;;;;;;5024168;28;20217;-71
2021/12/13 02:55:33;;;;;;;;;;;10.50;99.90;;;;;;5024331;28;19909;-72
2021/12/13 02:58:01;;;;;;;;;;;10.50;99.90;;;;;;5025056;28;19921;-72
2021/12/13 03:00:43;;;;;;;;;;;10.50;99.90;;;;;;5006816;28;20028;-72
2021/12/13 03:03:12;;;;;;;;;;;10.40;99.90;;;;;;5015223;28;19921;-73
2021/12/13 03:05:40;;;;;;;;;;;10.40;99.90;;;;;;5010066;28;20048;-71
2021/12/13 03:08:08;;;;;;;;;;;10.40;99.90;;;;;;5033282;28;20025;-72
2021/12/13 03:10:36;;;;;;;;;;;10.40;99.90;;;;;;5035510;28;19928;-72
2021/12/13 03:13:02;;;;;;;;;;;10.40;99.90;;;;;;5015937;28;19917;-72
2021/12/13 03:15:29;;;;;;;;;;;10.40;99.90;;;;;;5011616;28;19979;-73
2021/12/13 03:18:00;;;;;;;;;;;10.30;99.90;;;;;;5010654;28;19920;-72
2021/12/13 03:20:46;;;;;;;;;;;10.30;99.90;;;;;;5009405;28;20425;-73
2021/12/13 03:23:11;;;;;;;;;;;10.40;99.90;;;;;;5006974;28;19967;-71
2021/12/13 03:25:39;;;;;;;;;;;10.30;99.90;;;;;;5007877;28;19922;-73
2021/12/13 03:28:14;;;;;;;;;;;10.30;99.90;;;;;;5012558;28;19917;-71
2021/12/13 03:30:57;;;;;;;;;;;10.30;99.90;;;;;;5007957;28;19992;-72
2021/12/13 03:33:32;;;;;;;;;;;10.30;99.90;;;;;;5021079;28;20023;-71
2021/12/13 03:36:00;;;;;;;;;;;10.30;99.90;;;;;;5007806;28;19920;-72
2021/12/13 03:38:32;;;;;;;;;;;10.30;99.90;;;;;;5007819;28;19924;-73
2021/12/13 03:40:59;;;;;;;;;;;10.30;99.90;;;;;;5007336;28;19917;-73
2021/12/13 03:43:32;;;;;;;;;;;10.20;99.90;;;;;;5007368;28;19910;-71
2021/12/13 03:46:02;;;;;;;;;;;10.20;99.90;;;;;;5012168;28;20223;-73
2021/12/13 03:48:28;;;;;;;;;;;10.20;99.90;;;;;;5010658;28;19909;-72
2021/12/13 03:50:56;;;;;;;;;;;10.20;99.90;;;;;;5007037;28;19913;-72
2021/12/13 03:53:23;;;;;;;;;;;10.30;99.90;;;;;;5005750;28;19910;-74
2021/12/13 03:55:51;;;;;;;;;;;10.30;99.90;;;;;;5007277;28;20354;-71
2021/12/13 03:58:18;;;;;;;;;;;10.30;99.90;;;;;;5022352;28;20407;-72
2021/12/13 04:00:55;;;;;;;;;;;10.20;99.90;;;;;;5006997;28;19972;-73
2021/12/13 04:03:21;;;;;;;;;;;10.20;99.90;;;;;;5007287;28;19909;-73
2021/12/13 04:05:47;;;;;;;;;;;10.10;99.90;;;;;;4947482;28;1760815;-71
2021/12/13 04:08:16;;;;;;;;;;;10.10;99.90;;;;;;5020572;28;19920;-73
2021/12/13 04:10:57;;;;;;;;;;;10.20;99.90;;;;;;5012275;28;19936;-73
2021/12/13 04:13:25;;;;;;;;;;;10.10;99.90;;;;;;5020598;28;19949;-72
2021/12/13 04:16:04;;;;;;;;;;;10.10;99.90;;;;;;5025307;28;20092;-74
2021/12/13 04:19:22;;;;;;;;;;;10.10;99.90;;;;;;5035076;28;19917;-72
2021/12/13 04:21:32;;;;;;;;;;;10.10;99.90;;;;;;5002043;28;19914;-73
2021/12/13 04:24:00;;;;;;;;;;;10.20;99.90;;;;;;5009862;28;19917;-74
2021/12/13 04:26:26;;;;;;;;;;;10.20;99.90;;;;;;5007635;28;20520;-73
2021/12/13 04:28:54;;;;;;;;;;;10.20;99.90;;;;;;5007406;28;19925;-72
2021/12/13 04:31:22;;;;;;;;;;;10.20;99.90;;;;;;4992624;28;20000;-71
2021/12/13 04:33:50;;;;;;;;;;;10.30;99.90;;;;;;5007890;28;19932;-72
2021/12/13 04:36:35;;;;;;;;;;;10.30;99.90;;;;;;5008538;28;20278;-71
2021/12/13 04:39:04;;;;;;;;;;;10.20;99.90;;;;;;5007015;28;20364;-71
2021/12/13 04:41:32;;;;;;;;;;;10.20;99.90;;;;;;5007910;28;19917;-72
2021/12/13 04:44:01;;;;;;;;;;;10.20;99.90;;;;;;5007121;28;19921;-72
2021/12/13 04:46:28;;;;;;;;;;;10.20;99.90;;;;;;5007852;28;20366;-72
2021/12/13 04:48:56;;;;;;;;;;;10.10;99.90;;;;;;5007105;28;19913;-73
2021/12/13 04:51:24;;;;;;;;;;;10.20;99.90;;;;;;5007470;28;19910;-71
2021/12/13 04:53:50;;;;;;;;;;;10.20;99.90;;;;;;5006820;28;19917;-72
2021/12/13 04:56:18;;;;;;;;;;;10.20;99.90;;;;;;5007502;28;20295;-70
2021/12/13 04:58:47;;;;;;;;;;;10.10;99.90;;;;;;5006815;28;19945;-72
2021/12/13 05:01:13;;;;;;;;;;;10.10;99.90;;;;;;5009308;28;19920;-73
2021/12/13 05:03:41;;;;;;;;;;;10.10;99.90;;;;;;5026775;28;19909;-71
2021/12/13 05:06:08;;;;;;;;;;;10.10;99.90;;;;;;5026998;28;19914;-72
2021/12/13 05:08:34;;;;;;;;;;;10.10;99.90;;;;;;5021706;28;20275;-72
2021/12/13 05:11:02;;;;;;;;;;;10.10;99.90;;;;;;5011038;28;19983;-73
2021/12/13 05:13:31;;;;;;;;;;;10.10;99.90;;;;;;5010974;28;19936;-73
2021/12/13 05:16:04;;;;;;;;;;;10.10;99.90;;;;;;5010349;28;19913;-72
2021/12/13 05:18:32;;;;;;;;;;;10.10;99.90;;;;;;5010937;28;19913;-72
2021/12/13 05:21:00;;;;;;;;;;;10.20;99.90;;;;;;5009661;28;20409;-70
2021/12/13 05:23:26;;;;;;;;;;;10.20;99.90;;;;;;5014819;28;20029;-72
2021/12/13 05:25:56;;;;;;;;;;;10.20;99.90;;;;;;5010621;28;19940;-72
2021/12/13 05:28:24;;;;;;;;;;;10.20;99.90;;;;;;5009345;28;19967;-72
2021/12/13 05:30:57;;;;;;;;;;;10.20;99.90;;;;;;5008088;28;19920;-71
2021/12/13 05:33:23;;;;;;;;;;;10.20;99.90;;;;;;5009460;28;19920;-72
2021/12/13 05:35:51;;;;;;;;;;;10.20;99.90;;;;;;5010270;28;19921;-71
2021/12/13 05:38:28;;;;;;;;;;;10.20;99.90;;;;;;5010497;28;20401;-72
2021/12/13 05:40:54;;;;;;;;;;;10.30;99.90;;;;;;4992810;28;19961;-73
2021/12/13 05:43:23;;;;;;;;;;;10.30;99.90;;;;;;5001405;28;20003;-73
2021/12/13 05:45:51;;;;;;;;;;;10.30;99.90;;;;;;5004204;28;19929;-71
2021/12/13 05:48:18;;;;;;;;;;;10.20;99.90;;;;;;5008163;28;19959;-72
2021/12/13 05:50:47;;;;;;;;;;;10.20;99.90;;;;;;5007915;28;19928;-73
2021/12/13 05:53:18;;;;;;;;;;;10.20;99.90;;;;;;5010252;28;19910;-74
2021/12/13 05:56:04;;;;;;;;;;;10.20;99.90;;;;;;5024822;28;20439;-72
2021/12/13 05:58:42;;;;;;;;;;;10.20;99.90;;;;;;5009885;28;19913;-73
2021/12/13 06:01:22;;;;;;;;;;;10.20;99.90;;;;;;5020870;28;19975;-71
2021/12/13 06:03:53;;;;;;;;;;;10.30;99.90;;;;;;5002609;28;19968;-72
2021/12/13 06:06:24;;;;;;;;;;;10.30;99.90;;;;;;5013261;28;19913;-72
2021/12/13 06:08:53;;;;;;;;;;;10.30;99.90;;;;;;5019389;28;19914;-72
2021/12/13 06:11:33;;;;;;;;;;;10.20;99.90;;;;;;5011419;28;20401;-72
2021/12/13 06:14:15;;;;;;;;;;;10.20;99.90;;;;;;5011833;28;19963;-72
2021/12/13 06:16:43;;;;;;;;;;;10.10;99.90;;;;;;5025462;28;19971;-70
2021/12/13 06:19:12;;;;;;;;;;;10.10;99.90;;;;;;5012254;28;19918;-72
2021/12/13 06:21:38;;;;;;;;;;;10.20;99.90;;;;;;5007292;28;19914;-72
2021/12/13 06:24:03;;;;;;;;;;;10.20;99.90;;;;;;5019828;28;19928;-70
2021/12/13 06:26:30;;;;;;;;;;;10.20;99.90;;;;;;5009129;28;19914;-71
2021/12/13 06:28:57;;;;;;;;;;;10.20;99.90;;;;;;5008800;28;20012;-73
2021/12/13 06:31:23;;;;;;;;;;;10.10;99.90;;;;;;5010570;28;19920;-72
2021/12/13 06:33:51;;;;;;;;;;;10.10;99.90;;;;;;5010394;28;19949;-70
2021/12/13 06:36:31;;;;;;;;;;;10.00;99.90;;;;;;5009199;28;19914;-70
2021/12/13 06:38:58;;;;;;;;;;;10.00;99.90;;;;;;5011291;28;19921;-72
2021/12/13 06:41:26;;;;;;;;;;;9.90;99.90;;;;;;5012873;28;19917;-70
2021/12/13 06:43:56;;;;;;;;;;;9.90;99.90;;;;;;5025080;28;19961;-70
2021/12/13 06:46:22;;;;;;;;;;;9.90;99.90;;;;;;5007171;28;19966;-72
2021/12/13 06:48:48;;;;;;;;;;;9.90;99.90;;;;;;5010409;28;20514;-69
2021/12/13 06:51:16;;;;;;;;;;;9.90;99.90;;;;;;5017992;28;19936;-70
2021/12/13 06:53:59;;;;;;;;;;;9.90;99.90;;;;;;5010702;28;19921;-69
2021/12/13 06:56:27;;;;;;;;;;;9.90;99.90;;;;;;5007472;28;20386;-70
2021/12/13 06:58:55;;;;;;;;;;;9.90;99.90;;;;;;5008301;28;19916;-70
2021/12/13 07:01:20;;;;;;;;;;;9.80;99.90;;;;;;5014567;28;19959;-71
2021/12/13 07:03:55;;;;;;;;;;;9.90;99.90;;;;;;5010899;28;20422;-71
2021/12/13 07:06:20;;;;;;;;;;;9.90;99.90;;;;;;5016626;28;19913;-71
2021/12/13 07:08:47;;;;;;;;;;;9.80;99.90;;;;;;5018233;28;19921;-68
2021/12/13 07:11:20;;;;;;;;;;;9.80;99.90;;;;;;5033766;28;19913;-74
2021/12/13 07:13:48;;;;;;;;;;;9.80;99.90;;;;;;5021455;28;19917;-71
2021/12/13 07:16:14;;;;;;;;;;;9.80;99.90;;;;;;5023963;28;19913;-70
2021/12/13 07:18:40;;;;;;;;;;;9.80;99.90;;;;;;5019718;28;19917;-70
2021/12/13 07:21:15;;;;;;;;;;;9.80;99.90;;;;;;5028415;28;19959;-70
2021/12/13 07:23:50;;;;;;;;;;;9.80;99.90;;;;;;5010106;28;20016;-70
2021/12/13 07:26:27;;;;;;;;;;;9.80;99.90;;;;;;5008488;28;19917;-70
2021/12/13 07:28:53;;;;;;;;;;;9.80;99.90;;;;;;5008089;28;19910;-69
2021/12/13 07:31:18;;;;;;;;;;;9.80;99.90;;;;;;5002382;28;19975;-70
2021/12/13 07:33:44;;;;;;;;;;;9.90;99.90;;;;;;5008819;28;19910;-70
2021/12/13 07:36:15;;;;;;;;;;;9.90;99.90;;;;;;5012557;28;19918;-70
2021/12/13 07:38:48;;;;;;;;;;;9.90;99.90;;;;;;5007802;28;19928;-71
2021/12/13 07:41:14;;;;;;;;;;;9.90;99.90;;;;;;5007906;28;19996;-70
2021/12/13 07:43:43;;;;;;;;;;;9.90;99.90;;;;;;5011418;28;19971;-69
2021/12/13 07:46:11;;;;;;;;;;;9.90;99.90;;;;;;5008115;28;19917;-70
2021/12/13 07:48:42;;;;;;;;;;;9.80;99.90;;;;;;5007711;28;19928;-70
2021/12/13 07:51:22;;;;;;;;;;;9.90;99.90;;;;;;5008590;28;19917;-69
2021/12/13 07:53:57;;;;;;;;;;;9.80;99.90;;;;;;5028836;28;20388;-71
2021/12/13 07:56:25;;;;;;;;;;;9.80;99.90;;;;;;5028623;28;19963;-69
2021/12/13 07:58:59;;;;;;;;;;;9.80;99.90;;;;;;5028146;28;19909;-72
2021/12/13 08:01:26;;;;;;;;;;;9.80;99.90;;;;;;5015375;28;19910;-70
2021/12/13 08:04:17;;;;;;;;;;;9.80;99.90;;;;;;5015162;28;19917;-70
2021/12/13 08:06:51;;;;;;;;;;;9.80;99.90;;;;;;5025590;28;19909;-71
2021/12/13 08:09:19;;;;;;;;;;;9.80;99.90;;;;;;5054073;28;19916;-70
2021/12/13 08:11:44;;;;;;;;;;;9.80;99.90;;;;;;5015350;28;19920;-69
2021/12/13 08:14:11;;;;;;;;;;;9.80;99.90;;;;;;5019067;28;19913;-69
2021/12/13 08:16:39;;;;;;;;;;;9.80;99.90;;;;;;5008730;28;19936;-70
2021/12/13 08:19:25;;;;;;;;;;;9.80;99.90;;;;;;5008524;28;19992;-69
2021/12/13 08:21:58;;;;;;;;;;;9.90;99.90;;;;;;5037755;28;19906;-70
2021/12/13 08:24:29;;;;;;;;;;;9.80;99.90;;;;;;5011426;28;19920;-70
2021/12/13 08:26:58;;;;;;;;;;;9.80;99.90;;;;;;5012115;28;19933;-70
2021/12/13 08:29:27;;;;;;;;;;;9.80;99.90;;;;;;5009232;28;20525;-70
2021/12/13 08:31:54;;;;;;;;;;;9.80;99.90;;;;;;5007913;28;19917;-70
2021/12/13 08:34:31;;;;;;;;;;;9.90;99.90;;;;;;5008378;28;19981;-70
2021/12/13 08:36:57;;;;;;;;;;;9.80;99.90;;;;;;5013527;28;19915;-70
2021/12/13 08:39:30;;;;;;;;;;;9.70;99.90;;;;;;5019623;28;19954;-71
2021/12/13 08:41:57;;;;;;;;;;;9.70;99.90;;;;;;5047594;28;20012;-70
2021/12/13 08:44:26;;;;;;;;;;;9.70;99.90;;;;;;5031293;28;19959;-70
2021/12/13 08:46:52;;;;;;;;;;;9.70;99.90;;;;;;5046546;28;19913;-69
2021/12/13 08:49:17;;;;;;;;;;;9.70;99.90;;;;;;5031331;28;20282;-69
2021/12/13 08:52:04;;;;;;;;;;;9.70;99.90;;;;;;5016523;28;20025;-70
2021/12/13 08:54:35;;;;;;;;;;;9.70;99.90;;;;;;5010572;28;19988;-70
2021/12/13 08:57:02;;;;;;;;;;;9.70;99.90;;;;;;5009275;28;20378;-70
2021/12/13 08:59:28;;;;;;;;;;;9.70;99.90;;;;;;5011205;28;20001;-70
2021/12/13 09:01:56;;;;;;;;;;;9.70;99.90;;;;;;5011227;28;19948;-71
2021/12/13 09:04:26;;;;;;;;;;;9.70;99.90;;;;;;5008800;28;19937;-68
2021/12/13 09:06:55;;;;;;;;;;;9.70;99.90;;;;;;5012935;28;20016;-69
2021/12/13 09:09:21;;;;;;;;;;;9.70;99.90;;;;;;5011808;28;19997;-71
2021/12/13 09:11:55;;;;;;;;;;;9.80;99.90;;;;;;5011592;28;19921;-70
2021/12/13 09:14:21;;;;;;;;;;;9.80;99.90;;;;;;5011976;28;19952;-69
2021/12/13 09:17:06;;;;;;;;;;;9.80;99.90;;;;;;5024477;28;19975;-70
2021/12/13 09:19:52;;;;;;;;;;;9.90;99.90;;;;;;5009651;28;19920;-71
2021/12/13 09:22:28;;;;;;;;;;;9.80;99.90;;;;;;5008456;28;19909;-71
2021/12/13 09:25:00;;;;;;;;;;;9.90;99.90;;;;;;5006972;28;19918;-70
2021/12/13 09:27:34;;;;;;;;;;;9.90;99.90;;;;;;5019199;28;20382;-74
2021/12/13 09:30:00;;;;;;;;;;;10.00;99.90;;;;;;5017204;28;20433;-70
2021/12/13 09:32:31;;;;;;;;;;;10.00;99.90;;;;;;5013135;28;19913;-70
2021/12/13 09:35:16;;;;;;;;;;;10.00;99.90;;;;;;5011769;28;19967;-69
2021/12/13 09:37:41;;;;;;;;;;;10.00;99.90;;;;;;5011216;28;20028;-71
2021/12/13 09:40:07;;;;;;;;;;;10.00;99.90;;;;;;5010133;28;20004;-69
2021/12/13 09:42:42;;;;;;;;;;;10.10;99.90;;;;;;5012305;28;19910;-70
2021/12/13 09:45:09;;;;;;;;;;;10.20;99.90;;;;;;5030500;28;19920;-71
2021/12/13 09:47:38;;;;;;;;;;;10.20;99.90;;;;;;5011216;28;20302;-69
2021/12/13 09:50:30;;;;;;;;;;;10.20;99.90;;;;;;5009199;28;19925;-70
2021/12/13 09:52:58;;;;;;;;;;;10.20;99.90;;;;;;5009875;28;19925;-69
2021/12/13 09:55:28;;;;;;;;;;;10.20;99.90;;;;;;5009887;28;19921;-70
2021/12/13 09:57:57;;;;;;;;;;;10.20;99.90;;;;;;5011074;28;19910;-70
2021/12/13 10:00:28;;;;;;;;;;;10.30;99.90;;;;;;5009443;28;19967;-69
2021/12/13 10:02:56;;;;;;;;;;;10.30;99.90;;;;;;5026519;28;19905;-69
2021/12/13 10:05:24;;;;;;;;;;;10.20;99.90;;;;;;5024137;28;19979;-69
2021/12/13 10:07:52;;;;;;;;;;;10.20;99.90;;;;;;5013140;28;19909;-69
2021/12/13 10:10:20;;;;;;;;;;;10.20;99.90;;;;;;5010872;28;19910;-70
2021/12/13 10:12:50;;;;;;;;;;;10.30;99.90;;;;;;5012670;28;19917;-70
2021/12/13 10:15:24;;;;;;;;;;;10.30;99.90;;;;;;5018219;28;20662;-70
2021/12/13 10:17:51;;;;;;;;;;;10.40;99.90;;;;;;5015714;28;20564;-70
2021/12/13 10:20:26;;;;;;;;;;;10.40;99.90;;;;;;5025042;28;19910;-70
2021/12/13 10:22:51;;;;;;;;;;;10.40;99.90;;;;;;5004972;28;20020;-71
2021/12/13 10:25:28;;;;;;;;;;;10.30;99.90;;;;;;5005809;28;20016;-71
2021/12/13 10:27:54;;;;;;;;;;;10.30;99.90;;;;;;5014291;28;19919;-70
2021/12/13 10:30:25;;;;;;;;;;;10.30;99.90;;;;;;5008621;28;19967;-69
2021/12/13 10:32:53;;;;;;;;;;;10.30;99.90;;;;;;5009717;28;19913;-70
2021/12/13 10:35:21;;;;;;;;;;;10.30;99.90;;;;;;5009897;28;19979;-71
2021/12/13 10:37:50;;;;;;;;;;;10.30;99.90;;;;;;5009419;28;19972;-70
2021/12/13 10:40:22;;;;;;;;;;;10.30;99.90;;;;;;5009936;28;19910;-69
2021/12/13 10:42:51;;;;;;;;;;;10.30;99.90;;;;;;5013852;28;19909;-70
2021/12/13 10:45:21;;;;;;;;;;;10.30;99.90;;;;;;5031616;28;19960;-69
2021/12/13 10:47:49;;;;;;;;;;;10.30;99.90;;;;;;5032424;28;19923;-71
2021/12/13 10:50:19;;;;;;;;;;;10.30;99.90;;;;;;5034427;28;19909;-70
2021/12/13 10:52:48;;;;;;;;;;;10.20;99.90;;;;;;5036787;28;19935;-69
2021/12/13 10:55:28;;;;;;;;;;;10.30;99.90;;;;;;5046055;28;19913;-70
2021/12/13 10:57:53;;;;;;;;;;;10.30;99.90;;;;;;5047232;28;20388;-69
2021/12/13 11:00:24;;;;;;;;;;;10.30;99.90;;;;;;5044223;28;19909;-69
2021/12/13 11:02:54;;;;;;;;;;;10.30;99.90;;;;;;5029610;28;20413;-69
2021/12/13 11:05:21;;;;;;;;;;;10.30;99.90;;;;;;5029927;28;20004;-71
2021/12/13 11:07:48;;;;;;;;;;;10.30;99.90;;;;;;5017371;28;19996;-71
2021/12/13 11:10:16;;;;;;;;;;;10.40;99.90;;;;;;5013962;28;19916;-71
2021/12/13 11:12:45;;;;;;;;;;;10.40;99.90;;;;;;5012573;28;19921;-70
2021/12/13 11:15:20;;;;;;;;;;;10.40;99.90;;;;;;5009622;28;19952;-70
2021/12/13 11:17:46;;;;;;;;;;;10.40;99.90;;;;;;5009652;28;20188;-69
2021/12/13 11:20:15;;;;;;;;;;;10.40;99.90;;;;;;5009688;28;19914;-69
2021/12/13 11:22:40;;;;;;;;;;;10.30;99.90;;;;;;5009363;28;19909;-70
2021/12/13 11:25:26;;;;;;;;;;;10.30;99.90;;;;;;5009407;28;20305;-69
2021/12/13 11:27:52;;;;;;;;;;;10.30;99.90;;;;;;5009242;28;19913;-70
2021/12/13 11:30:23;;;;;;;;;;;10.30;99.90;;;;;;5009583;28;20044;-70
2021/12/13 11:32:57;;;;;;;;;;;10.40;99.90;;;;;;5024085;28;19918;-71
2021/12/13 11:35:42;;;;;;;;;;;10.40;99.90;;;;;;5009163;28;19910;-69
2021/12/13 11:38:30;;;;;;;;;;;10.40;99.90;;;;;;5013030;28;19964;-69
2021/12/13 11:41:10;;;;;;;;;;;10.40;99.90;;;;;;5012021;28;20417;-70
2021/12/13 11:43:36;;;;;;;;;;;10.40;99.90;;;;;;5023191;28;19969;-70
2021/12/13 11:46:29;;;;;;;;;;;10.40;99.90;;;;;;5050662;28;19921;-70
2021/12/13 11:49:15;;;;;;;;;;;10.50;99.90;;;;;;5048267;28;20006;-71
2021/12/13 11:51:47;;;;;;;;;;;10.50;99.90;;;;;;5038319;28;19910;-68
2021/12/13 11:54:32;;;;;;;;;;;10.50;99.90;;;;;;5023071;28;20218;-69
2021/12/13 11:57:16;;;;;;;;;;;10.50;99.90;;;;;;5013488;28;19972;-70
2021/12/13 11:59:51;;;;;;;;;;;10.50;99.90;;;;;;5009450;28;19909;-71
2021/12/13 12:02:24;;;;;;;;;;;10.50;99.90;;;;;;5009452;28;20021;-69
2021/12/13 12:05:08;;;;;;;;;;;10.50;99.90;;;;;;5009225;28;20389;-69
2021/12/13 12:07:53;;;;;;;;;;;10.50;99.90;;;;;;5023394;28;20292;-70
2021/12/13 12:10:25;;;;;;;;;;;10.50;99.90;;;;;;5045062;28;20459;-69
2021/12/13 12:13:15;;;;;;;;;;;10.60;99.90;;;;;;5031223;28;19976;-70
2021/12/13 12:15:42;;;;;;;;;;;10.50;99.90;;;;;;5024928;28;19910;-68
2021/12/13 12:18:10;;;;;;;;;;;10.50;99.90;;;;;;5013726;28;20024;-69
2021/12/13 12:20:39;;;;;;;;;;;10.60;99.90;;;;;;5013578;28;19939;-70
2021/12/13 12:23:06;;;;;;;;;;;10.60;99.90;;;;;;5013731;28;19913;-71
2021/12/13 12:25:32;;;;;;;;;;;10.60;99.90;;;;;;5012337;28;19913;-70
2021/12/13 12:28:11;;;;;;;;;;;10.50;99.90;;;;;;5012440;28;19939;-70
2021/12/13 12:30:39;;;;;;;;;;;10.60;99.90;;;;;;5012835;28;20279;-72
2021/12/13 12:33:07;;;;;;;;;;;10.50;99.90;;;;;;5012386;28;19921;-69
2021/12/13 12:35:45;;;;;;;;;;;10.60;99.90;;;;;;5012346;28;20352;-69
2021/12/13 12:38:25;;;;;;;;;;;10.60;99.90;;;;;;5027588;28;19983;-69
2021/12/13 12:41:19;;;;;;;;;;;10.50;99.90;;;;;;5012285;28;19910;-69
2021/12/13 12:43:52;;;;;;;;;;;10.60;99.90;;;;;;5024092;28;19932;-71
2021/12/13 12:46:19;;;;;;;;;;;10.60;99.90;;;;;;5033579;28;19924;-70
2021/12/13 12:48:48;;;;;;;;;;;10.60;99.90;;;;;;5032524;28;20317;-71
2021/12/13 12:51:35;;;;;;;;;;;10.60;99.90;;;;;;5024943;28;19909;-70
2021/12/13 12:54:05;;;;;;;;;;;10.60;99.90;;;;;;5018383;28;19919;-70
2021/12/13 12:56:34;;;;;;;;;;;10.60;99.90;;;;;;5011831;28;19945;-70
2021/12/13 12:59:00;;;;;;;;;;;10.60;99.90;;;;;;5026867;28;20099;-70
2021/12/13 13:01:31;;;;;;;;;;;10.70;99.90;;;;;;5027392;28;20048;-71
2021/12/13 13:04:28;;;;;;;;;;;10.80;99.90;;;;;;5011542;28;20382;-70
2021/12/13 13:06:54;;;;;;;;;;;10.70;99.90;;;;;;5018395;28;19909;-68
2021/12/13 13:09:20;;;;;;;;;;;10.70;99.90;;;;;;5046400;28;19920;-70
2021/12/13 13:11:48;;;;;;;;;;;10.60;99.90;;;;;;5031560;28;20004;-69
2021/12/13 13:14:16;;;;;;;;;;;10.60;99.90;;;;;;5031633;28;20204;-71
2021/12/13 13:16:44;;;;;;;;;;;10.70;99.90;;;;;;5015893;28;19909;-71
2021/12/13 13:19:21;;;;;;;;;;;10.60;99.90;;;;;;5011367;28;19918;-70
2021/12/13 13:21:46;;;;;;;;;;;10.60;99.90;;;;;;5011247;28;20495;-69
2021/12/13 13:24:12;;;;;;;;;;;10.50;99.90;;;;;;5011318;28;19914;-71
2021/12/13 13:26:41;;;;;;;;;;;10.60;99.90;;;;;;5014514;28;19918;-70
2021/12/13 13:29:08;;;;;;;;;;;10.60;99.90;;;;;;5037444;28;19917;-69
2021/12/13 13:31:34;;;;;;;;;;;10.60;99.90;;;;;;5036608;28;19975;-70
2021/12/13 13:34:03;;;;;;;;;;;10.70;99.90;;;;;;5011839;28;20130;-69
2021/12/13 13:36:43;;;;;;;;;;;10.70;99.90;;;;;;5012242;28;19909;-70
2021/12/13 13:39:28;;;;;;;;;;;10.80;99.90;;;;;;5012495;28;20004;-70
2021/12/13 13:41:56;;;;;;;;;;;10.90;99.90;;;;;;5009335;28;20355;-69
2021/12/13 13:44:23;;;;;;;;;;;10.80;99.90;;;;;;5028263;28;19913;-70
2021/12/13 13:46:58;;;;;;;;;;;10.70;99.90;;;;;;5046243;28;19990;-70
2021/12/13 13:49:23;;;;;;;;;;;10.70;99.90;;;;;;5034573;28;19909;-71
2021/12/13 13:51:49;;;;;;;;;;;10.80;99.90;;;;;;5035337;28;20422;-69
2021/12/13 13:54:15;;;;;;;;;;;10.70;99.90;;;;;;5032813;28;19919;-71
2021/12/13 13:56:42;;;;;;;;;;;10.70;99.90;;;;;;5029874;28;20393;-70
2021/12/13 13:59:10;;;;;;;;;;;10.70;99.90;;;;;;5015865;28;19999;-70
2021/12/13 14:01:36;;;;;;;;;;;10.70;99.90;;;;;;5010939;28;19961;-70
2021/12/13 14:04:04;;;;;;;;;;;10.70;99.90;;;;;;5010385;28;20014;-70
2021/12/13 14:06:34;;;;;;;;;;;10.60;99.90;;;;;;5032243;28;19909;-70
2021/12/13 14:09:04;;;;;;;;;;;10.50;99.90;;;;;;5048634;28;20217;-69
2021/12/13 14:11:31;;;;;;;;;;;10.50;99.90;;;;;;5033568;28;20277;-70
2021/12/13 14:13:59;;;;;;;;;;;10.50;99.90;;;;;;5021070;28;19914;-70
2021/12/13 14:16:27;;;;;;;;;;;10.50;99.90;;;;;;5028251;28;19910;-70
2021/12/13 14:18:53;;;;;;;;;;;10.60;99.90;;;;;;5010510;28;20263;-70
2021/12/13 14:21:24;;;;;;;;;;;10.50;99.90;;;;;;5003065;28;19973;-70
2021/12/13 14:23:50;;;;;;;;;;;10.50;99.90;;;;;;5000167;28;19991;-69
2021/12/13 14:26:17;;;;;;;;;;;10.50;99.90;;;;;;5012782;28;20016;-70
2021/12/13 14:28:45;;;;;;;;;;;10.50;99.90;;;;;;5015870;28;19921;-69
2021/12/13 14:31:41;;;;;;;;;;;10.50;99.90;;;;;;5005377;28;19945;-69
2021/12/13 14:34:21;;;;;;;;;;;10.50;99.90;;;;;;5004585;28;19913;-70
2021/12/13 14:36:49;;;;;;;;;;;10.50;99.90;;;;;;5020394;28;19913;-72
2021/12/13 14:39:22;;;;;;;;;;;10.50;99.90;;;;;;5024496;28;19928;-70
2021/12/13 14:41:48;;;;;;;;;;;10.50;99.90;;;;;;5020360;28;19944;-70
2021/12/13 14:44:15;;;;;;;;;;;10.60;99.90;;;;;;5013703;28;19968;-70